Time;durP1;ratioP1;P1;durP2;ratioP2;P2;SDS_P1;SDS_P2;PMS_P1;PMS_P2;Temp;Humidity;BMP_temperature;BMP_pressure;BME280_temperature;BME280_humidity;BME280_pressure;Samples;Min_cycle;Max_cycle;Signal;HPM_P1;HPM_P2
2021/01/18 00:02:01;;;;;;;19.55;6.65;;;;;;;-10.74;53.26;100397.81;1737711;82;21402;-64
2021/01/18 00:04:29;;;;;;;17.73;6.42;;;;;;;-10.85;53.15;100400.91;1737777;82;21156;-64
2021/01/18 00:06:57;;;;;;;18.30;6.92;;;;;;;-10.89;53.25;100400.63;1737800;82;21071;-64
2021/01/18 00:09:25;;;;;;;21.85;7.40;;;;;;;-10.82;53.38;100405.21;1737846;82;21092;-63
2021/01/18 00:11:53;;;;;;;20.55;7.42;;;;;;;-10.82;53.19;100414.02;1737693;81;21334;-63
2021/01/18 00:14:20;;;;;;;15.13;5.45;;;;;;;-10.85;52.93;100417.24;1737760;82;21081;-63
2021/01/18 00:16:49;;;;;;;16.75;6.30;;;;;;;-10.91;53.04;100421.00;1737690;82;21303;-64
2021/01/18 00:19:16;;;;;;;16.17;6.12;;;;;;;-11.05;52.83;100422.88;1737899;82;21616;-65
2021/01/18 00:21:45;;;;;;;15.00;5.70;;;;;;;-11.08;52.92;100417.68;1737711;82;21048;-65
2021/01/18 00:24:13;;;;;;;16.37;6.70;;;;;;;-11.17;52.74;100409.25;1737671;81;21099;-65
2021/01/18 00:26:40;;;;;;;22.17;6.85;;;;;;;-11.30;53.07;100416.81;1737661;82;21033;-64
2021/01/18 00:29:07;;;;;;;20.35;7.12;;;;;;;-11.30;53.45;100412.38;1703918;83;21778;-64
2021/01/18 00:31:35;;;;;;;15.25;6.25;;;;;;;-11.26;53.45;100420.59;1719479;83;21061;-64
2021/01/18 00:34:02;;;;;;;25.82;7.53;;;;;;;-11.40;53.43;100418.95;1719529;82;21283;-64
2021/01/18 00:36:30;;;;;;;18.65;5.75;;;;;;;-11.58;53.61;100419.66;1719440;83;21336;-65
2021/01/18 00:38:58;;;;;;;19.27;6.53;;;;;;;-11.57;54.05;100417.41;1719572;83;21287;-65
2021/01/18 00:41:25;;;;;;;18.77;6.17;;;;;;;-11.59;54.17;100425.86;1719634;82;21245;-65
2021/01/18 00:43:53;;;;;;;25.25;6.95;;;;;;;-11.72;53.85;100422.78;1719501;83;21778;-63
2021/01/18 00:46:20;;;;;;;24.32;8.33;;;;;;;-11.94;53.80;100421.44;1719552;82;21077;-64
2021/01/18 00:48:48;;;;;;;30.72;8.85;;;;;;;-12.11;54.36;100414.58;1719474;83;21299;-63
2021/01/18 00:51:16;;;;;;;36.93;10.03;;;;;;;-12.12;54.86;100418.14;1719640;83;21101;-64
2021/01/18 00:53:43;;;;;;;30.02;9.63;;;;;;;-12.04;55.25;100429.28;1719490;83;21043;-65
2021/01/18 00:56:12;;;;;;;25.57;9.55;;;;;;;-11.90;55.35;100426.14;1719454;82;21081;-63
2021/01/18 00:58:45;;;;;;;30.48;10.13;;;;;;;-11.82;55.15;100420.12;1718947;83;21297;-63
2021/01/18 01:01:20;;;;;;;25.82;7.97;;;;;;;-11.78;55.33;100417.77;1717217;83;21034;-64
2021/01/18 01:03:49;;;;;;;27.65;9.58;;;;;;;-11.77;55.05;100419.95;1699062;83;21734;-64
2021/01/18 01:06:16;;;;;;;20.85;6.70;;;;;;;-11.87;55.14;100419.43;1719492;82;21672;-63
2021/01/18 01:08:44;;;;;;;22.58;7.28;;;;;;;-11.88;55.09;100417.24;1719490;82;21195;-65
2021/01/18 01:11:12;;;;;;;21.52;6.70;;;;;;;-11.93;55.10;100421.84;1719453;82;21340;-65
2021/01/18 01:13:39;;;;;;;15.85;5.72;;;;;;;-12.01;54.97;100419.94;1719510;82;21769;-63
2021/01/18 01:16:07;;;;;;;19.03;6.53;;;;;;;-12.02;55.40;100419.53;1719543;82;21359;-63
2021/01/18 01:18:35;;;;;;;16.63;5.97;;;;;;;-11.98;55.56;100415.00;1719557;82;21299;-66
2021/01/18 01:21:03;;;;;;;20.30;6.62;;;;;;;-11.94;55.08;100414.83;1719633;83;21088;-64
2021/01/18 01:23:30;;;;;;;19.57;6.23;;;;;;;-12.03;54.98;100426.19;1719598;82;21863;-64
2021/01/18 01:25:58;;;;;;;17.60;6.28;;;;;;;-12.07;54.94;100421.48;1719601;83;21725;-64
2021/01/18 01:28:25;;;;;;;17.77;6.72;;;;;;;-12.13;54.93;100425.66;1719542;83;21271;-64
2021/01/18 01:30:53;;;;;;;19.60;7.05;;;;;;;-12.11;54.96;100426.92;1719480;82;21324;-64
2021/01/18 01:33:20;;;;;;;16.23;6.70;;;;;;;-12.10;55.23;100424.23;1719559;83;21260;-64
2021/01/18 01:35:48;;;;;;;19.87;7.03;;;;;;;-12.04;55.21;100425.33;1719646;83;21398;-64
2021/01/18 01:38:15;;;;;;;16.97;5.95;;;;;;;-12.03;54.86;100425.73;1719545;82;21073;-62
2021/01/18 01:40:43;;;;;;;15.70;6.13;;;;;;;-12.10;54.67;100420.27;1719495;83;21156;-65
2021/01/18 01:43:10;;;;;;;28.60;8.00;;;;;;;-12.22;54.72;100427.30;1719481;83;21294;-64
2021/01/18 01:45:37;;;;;;;23.00;7.20;;;;;;;-12.39;54.70;100421.72;1719524;82;21265;-63
2021/01/18 01:48:06;;;;;;;19.67;5.90;;;;;;;-12.54;55.01;100420.02;1719582;82;21707;-64
2021/01/18 01:50:37;;;;;;;13.87;4.93;;;;;;;-12.58;55.26;100415.77;1719459;82;21065;-65
2021/01/18 01:53:12;;;;;;;25.33;8.37;;;;;;;-12.61;55.43;100417.19;1719456;83;21767;-64
2021/01/18 01:55:40;;;;;;;30.23;8.13;;;;;;;-12.76;55.47;100412.88;1719455;82;21473;-64
2021/01/18 01:58:08;;;;;;;32.37;8.87;;;;;;;-12.82;55.82;100404.72;1719466;82;21797;-64
2021/01/18 02:00:39;;;;;;;26.70;8.43;;;;;;;-12.80;56.06;100405.53;1719433;83;21118;-62
2021/01/18 02:03:11;;;;;;;29.40;9.00;;;;;;;-12.73;56.14;100408.82;1719495;83;21073;-64
2021/01/18 02:05:39;;;;;;;30.30;9.30;;;;;;;-12.78;56.08;100402.84;1719401;82;21086;-64
2021/01/18 02:08:08;;;;;;;31.70;9.20;;;;;;;-12.86;56.17;100407.05;1719519;83;21069;-65
2021/01/18 02:10:36;;;;;;;28.37;8.63;;;;;;;-12.94;56.44;100405.12;1719622;82;21360;-64
2021/01/18 02:13:27;;;;;;;25.57;7.77;;;;;;;-12.90;56.53;100409.39;1719666;83;21346;-63
2021/01/18 02:16:12;;;;;;;25.70;8.37;;;;;;;-12.89;56.56;100415.06;1719547;83;21249;-63
2021/01/18 02:19:17;;;;;;;28.83;9.87;;;;;;;-12.94;56.67;100403.35;1719528;82;21320;-64
2021/01/18 02:22:27;;;;;;;32.07;8.73;;;;;;;-12.95;56.66;100413.95;1719522;82;21192;-63
2021/01/18 02:25:09;;;;;;;23.13;7.80;;;;;;;-12.92;56.77;100409.89;1711284;83;21094;-63
2021/01/18 02:27:54;;;;;;;20.57;7.80;;;;;;;-13.04;56.67;100408.94;1719485;83;21307;-64
2021/01/18 02:30:42;;;;;;;24.20;6.93;;;;;;;-13.06;56.91;100412.95;1719508;83;21267;-64
2021/01/18 02:33:42;;;;;;;21.53;6.07;;;;;;;-13.17;56.79;100409.38;1719043;83;21169;-65
2021/01/18 02:37:02;;;;;;;22.53;8.00;;;;;;;-13.33;57.05;100412.08;1719480;82;21164;-65
2021/01/18 02:40:09;;;;;;;25.57;8.50;;;;;;;-13.50;57.27;100418.33;1719473;83;21065;-63
2021/01/18 02:42:42;;;;;;;28.53;8.23;;;;;;;-13.46;57.76;100417.33;1719537;82;21220;-66
2021/01/18 02:45:10;;;;;;;26.30;8.70;;;;;;;-13.32;57.83;100428.30;1719109;82;22054;-65
2021/01/18 02:47:38;;;;;;;30.20;8.97;;;;;;;-13.28;57.63;100424.66;1719541;83;21306;-65
2021/01/18 02:50:07;;;;;;;32.23;9.27;;;;;;;-13.34;57.68;100419.58;1719531;82;21052;-64
2021/01/18 02:52:42;;;;;;;34.90;10.43;;;;;;;-13.32;57.82;100417.77;1719663;82;21323;-64
2021/01/18 02:55:13;;;;;;;21.23;7.77;;;;;;;-13.31;57.88;100422.58;1719490;82;21796;-64
2021/01/18 02:57:40;;;;;;;18.77;5.97;;;;;;;-13.16;58.09;100422.06;1719687;82;21216;-64
2021/01/18 03:00:23;;;;;;;27.90;9.40;;;;;;;-13.07;57.81;100420.45;1719679;82;21336;-63
2021/01/18 03:03:14;;;;;;;35.93;9.37;;;;;;;-13.16;57.46;100415.02;1699420;83;21268;-64
2021/01/18 03:06:09;;;;;;;30.87;10.00;;;;;;;-13.22;57.49;100418.34;1719237;82;21362;-63
2021/01/18 03:08:42;;;;;;;29.10;9.30;;;;;;;-13.19;57.67;100428.33;1679430;83;21835;-66
2021/01/18 03:11:13;;;;;;;23.43;8.00;;;;;;;-13.10;57.69;100422.32;1719439;83;21834;-64
2021/01/18 03:14:00;;;;;;;33.43;11.07;;;;;;;-13.01;57.62;100422.89;1719473;82;21165;-64
2021/01/18 03:16:31;;;;;;;26.73;8.60;;;;;;;-12.98;57.57;100425.91;1719566;82;21256;-64
2021/01/18 03:19:02;;;;;;;37.43;9.83;;;;;;;-13.01;57.24;100427.30;1699501;82;21212;-65
2021/01/18 03:21:30;;;;;;;36.13;10.53;;;;;;;-13.08;57.29;100427.09;1719632;82;21304;-64
2021/01/18 03:23:57;;;;;;;28.77;10.20;;;;;;;-13.05;57.31;100424.36;1719544;82;21077;-65
2021/01/18 03:26:28;;;;;;;33.57;9.50;;;;;;;-13.02;57.08;100434.80;1719781;82;21343;-64
2021/01/18 03:28:55;;;;;;;34.10;11.33;;;;;;;-13.14;57.06;100432.96;1719728;82;21303;-63
2021/01/18 03:31:23;;;;;;;40.77;11.27;;;;;;;-13.19;57.13;100442.83;1726000;82;21345;-63
2021/01/18 03:33:51;;;;;;;32.83;10.17;;;;;;;-13.18;57.31;100430.51;1727114;82;21291;-63
2021/01/18 03:36:18;;;;;;;37.83;11.17;;;;;;;-13.08;57.30;100435.00;1727102;82;21753;-64
2021/01/18 03:38:46;;;;;;;37.77;11.10;;;;;;;-13.12;57.10;100431.14;1726979;82;21052;-65
2021/01/18 03:41:14;;;;;;;45.53;12.40;;;;;;;-13.12;57.18;100433.78;1727107;83;21281;-63
2021/01/18 03:43:41;;;;;;;42.90;11.83;;;;;;;-13.02;57.24;100445.34;1727010;83;21233;-64
2021/01/18 03:46:09;;;;;;;60.80;16.10;;;;;;;-12.95;57.18;100439.86;1727166;83;21307;-63
2021/01/18 03:48:36;;;;;;;78.77;18.43;;;;;;;-12.95;56.83;100439.00;1727080;83;21064;-64
2021/01/18 03:51:04;;;;;;;47.27;12.60;;;;;;;-13.05;56.85;100434.90;1727044;83;21266;-63
2021/01/18 03:53:32;;;;;;;30.57;8.93;;;;;;;-13.06;56.86;100441.08;1727126;82;21305;-63
2021/01/18 03:56:00;;;;;;;30.07;10.10;;;;;;;-13.17;56.74;100434.41;1727084;82;21348;-64
2021/01/18 03:58:28;;;;;;;34.43;10.40;;;;;;;-13.29;56.83;100436.11;1727053;83;21159;-64
2021/01/18 04:00:55;;;;;;;32.93;9.10;;;;;;;-13.29;56.97;100437.88;1726950;82;21815;-64
2021/01/18 04:03:23;;;;;;;25.27;8.40;;;;;;;-13.27;57.08;100439.56;1727029;83;21183;-64
2021/01/18 04:05:50;;;;;;;31.77;9.50;;;;;;;-13.32;56.92;100437.53;1727011;82;21728;-65
2021/01/18 04:08:18;;;;;;;24.57;8.33;;;;;;;-13.44;56.98;100440.54;1727028;83;21053;-63
2021/01/18 04:10:45;;;;;;;27.17;8.70;;;;;;;-13.52;57.07;100430.69;1726957;82;21101;-65
2021/01/18 04:13:13;;;;;;;27.40;8.17;;;;;;;-13.66;57.14;100432.84;1727067;83;21329;-66
2021/01/18 04:15:40;;;;;;;30.13;9.30;;;;;;;-13.70;57.50;100429.89;1726975;82;21065;-65
2021/01/18 04:18:08;;;;;;;32.53;8.87;;;;;;;-13.67;57.59;100433.29;1727008;82;21233;-64
2021/01/18 04:20:36;;;;;;;30.60;9.20;;;;;;;-13.61;57.59;100436.23;1727182;82;21363;-65
2021/01/18 04:23:04;;;;;;;23.43;7.50;;;;;;;-13.74;57.43;100422.98;1726978;83;21287;-64
2021/01/18 04:25:32;;;;;;;30.00;9.40;;;;;;;-13.86;57.61;100434.73;1727095;83;21334;-65
2021/01/18 04:28:01;;;;;;;26.40;9.77;;;;;;;-14.00;57.78;100443.03;1727359;82;21357;-63
2021/01/18 04:30:33;;;;;;;31.23;9.33;;;;;;;-14.01;58.14;100452.28;1726913;83;21333;-63
2021/01/18 04:33:03;;;;;;;27.90;9.13;;;;;;;-14.02;58.14;100443.98;1727192;83;21299;-65
2021/01/18 04:35:33;;;;;;;28.87;9.40;;;;;;;-14.02;58.30;100448.79;1727051;83;21839;-63
2021/01/18 04:38:00;;;;;;;27.13;8.03;;;;;;;-13.97;58.46;100442.94;1727077;83;21061;-63
2021/01/18 04:40:29;;;;;;;28.53;8.10;;;;;;;-13.87;58.43;100447.49;1727043;82;21844;-64
2021/01/18 04:42:56;;;;;;;26.90;8.70;;;;;;;-13.88;58.39;100445.77;1726915;83;21062;-63
2021/01/18 04:45:25;;;;;;;28.70;8.03;;;;;;;-13.88;58.37;100447.08;1726903;83;21256;-64
2021/01/18 04:47:54;;;;;;;19.00;6.87;;;;;;;-13.93;58.36;100452.93;1727032;83;21323;-63
2021/01/18 04:50:24;;;;;;;26.17;8.27;;;;;;;-14.01;58.30;100454.46;1727148;83;21092;-64
2021/01/18 04:52:55;;;;;;;24.83;8.40;;;;;;;-14.08;58.46;100450.73;1727067;83;21789;-63
2021/01/18 04:55:33;;;;;;;29.43;7.77;;;;;;;-14.07;58.68;100455.95;1726989;83;21667;-65
2021/01/18 04:58:13;;;;;;;25.37;8.90;;;;;;;-14.08;58.73;100460.80;1707442;82;21022;-64
2021/01/18 05:00:50;;;;;;;28.77;8.93;;;;;;;-14.08;58.69;100470.47;1727066;83;21269;-64
2021/01/18 05:03:22;;;;;;;32.03;10.00;;;;;;;-14.14;58.88;100460.97;1727111;83;21315;-64
2021/01/18 05:06:13;;;;;;;24.60;8.90;;;;;;;-14.01;59.12;100466.30;1727050;82;21311;-65
2021/01/18 05:09:10;;;;;;;27.93;9.13;;;;;;;-13.89;59.03;100459.38;1727075;82;21307;-64
2021/01/18 05:11:38;;;;;;;28.70;9.57;;;;;;;-13.86;58.93;100465.88;1727015;82;21422;-65
2021/01/18 05:14:05;;;;;;;32.97;9.07;;;;;;;-13.79;58.79;100466.56;1727061;83;21065;-65
2021/01/18 05:16:36;;;;;;;22.30;7.57;;;;;;;-13.79;58.54;100466.11;1726936;83;21125;-64
2021/01/18 05:19:11;;;;;;;29.10;8.37;;;;;;;-13.89;58.42;100484.84;1727023;83;21097;-64
2021/01/18 05:21:48;;;;;;;24.13;8.03;;;;;;;-14.07;58.41;100480.95;1726999;83;21080;-64
2021/01/18 05:24:17;;;;;;;26.73;9.43;;;;;;;-14.23;58.70;100484.45;1727091;83;21087;-64
2021/01/18 05:27:07;;;;;;;28.40;9.43;;;;;;;-14.39;58.82;100492.30;1727084;82;21308;-65
2021/01/18 05:29:37;;;;;;;29.37;9.13;;;;;;;-14.47;59.17;100502.19;1727157;83;21363;-66
2021/01/18 05:32:24;;;;;;;30.17;9.87;;;;;;;-14.42;59.48;100502.94;1736044;81;21096;-64
2021/01/18 05:34:53;;;;;;;21.57;6.87;;;;;;;-14.43;59.42;100499.44;1737713;82;21064;-62
2021/01/18 05:37:20;;;;;;;42.73;10.90;;;;;;;-14.44;59.61;100499.48;1708812;82;21800;-64
2021/01/18 05:39:48;;;;;;;35.77;11.10;;;;;;;-14.53;59.49;100504.52;1737739;81;21200;-64
2021/01/18 05:42:22;;;;;;;37.97;11.83;;;;;;;-14.57;59.78;100504.64;1737755;81;21061;-65
2021/01/18 05:44:50;;;;;;;36.20;11.07;;;;;;;-14.48;59.93;100513.61;1737759;82;21791;-64
2021/01/18 05:47:18;;;;;;;45.30;12.87;;;;;;;-14.35;59.96;100519.39;1737713;81;21308;-64
2021/01/18 05:49:50;;;;;;;38.27;11.57;;;;;;;-14.31;59.67;100513.16;1737631;82;21064;-68
2021/01/18 05:52:31;;;;;;;41.90;12.03;;;;;;;-14.22;59.85;100516.89;1737783;82;21726;-65
2021/01/18 05:55:23;;;;;;;41.43;13.47;;;;;;;-14.10;59.65;100515.25;1737220;82;21315;-63
2021/01/18 05:57:54;;;;;;;35.53;10.47;;;;;;;-14.08;59.42;100524.42;1737627;82;21820;-65
2021/01/18 06:00:36;;;;;;;35.30;12.13;;;;;;;-14.07;59.33;100527.47;1734790;82;21451;-64
2021/01/18 06:03:10;;;;;;;48.30;12.77;;;;;;;-14.13;59.39;100538.57;1737662;82;21680;-65
2021/01/18 06:05:40;;;;;;;43.47;12.23;;;;;;;-13.96;59.58;100535.48;1737656;81;21498;-63
2021/01/18 06:08:19;;;;;;;34.43;11.10;;;;;;;-13.82;59.50;100529.85;1737581;81;21195;-67
2021/01/18 06:10:51;;;;;;;42.67;11.10;;;;;;;-13.67;59.37;100536.46;1737720;82;21801;-64
2021/01/18 06:13:28;;;;;;;32.27;9.30;;;;;;;-13.68;59.01;100538.69;1737680;82;21332;-64
2021/01/18 06:16:05;;;;;;;33.23;10.90;;;;;;;-13.74;58.93;100537.54;1739742;81;21511;-64
2021/01/18 06:18:33;;;;;;;22.93;8.05;;;;;;;-13.77;59.12;100541.13;1768142;80;21084;-64
2021/01/18 06:21:06;;;;;;;36.00;11.07;;;;;;;-13.64;59.11;100541.68;1768098;80;21189;-64
2021/01/18 06:23:34;;;;;;;32.53;10.03;;;;;;;-13.62;59.02;100539.86;1768058;81;21061;-66
2021/01/18 06:26:01;;;;;;;32.47;10.40;;;;;;;-13.63;58.82;100529.78;1767822;80;21064;-65
2021/01/18 06:28:36;;;;;;;33.67;10.53;;;;;;;-13.66;58.96;100528.52;1767924;80;21098;-65
2021/01/18 06:31:12;;;;;;;36.80;11.00;;;;;;;-13.54;59.18;100536.11;1762747;80;21226;-64
2021/01/18 06:33:49;;;;;;;37.37;10.73;;;;;;;-13.35;59.18;100537.76;1749664;82;21531;-67
2021/01/18 06:36:23;;;;;;;32.78;10.25;;;;;;;-13.25;58.91;100539.67;1749944;82;21198;-67
2021/01/18 06:39:05;;;;;;;33.70;11.20;;;;;;;-13.25;58.75;100535.27;1749424;82;21299;-67
2021/01/18 06:41:36;;;;;;;30.93;9.53;;;;;;;-13.25;58.72;100543.17;1749647;82;21724;-67
2021/01/18 06:44:04;;;;;;;39.17;11.57;;;;;;;-13.17;58.73;100541.17;1749600;81;21256;-67
2021/01/18 06:46:36;;;;;;;30.83;9.67;;;;;;;-13.08;58.67;100537.36;1749646;82;21255;-67
2021/01/18 06:49:05;;;;;;;34.60;10.73;;;;;;;-12.96;58.73;100538.80;1749748;81;21294;-67
2021/01/18 06:51:33;;;;;;;30.27;9.10;;;;;;;-12.93;58.40;100546.61;1749754;81;21102;-67
2021/01/18 06:54:02;;;;;;;30.27;9.40;;;;;;;-12.94;58.29;100548.84;1749696;81;21052;-67
2021/01/18 06:56:50;;;;;;;34.10;10.57;;;;;;;-12.99;58.19;100553.39;1728696;81;21428;-67
2021/01/18 06:59:40;;;;;;;30.10;9.47;;;;;;;-13.04;58.42;100546.04;1749461;81;21403;-67
2021/01/18 07:02:23;;;;;;;37.20;10.80;;;;;;;-12.90;58.55;100554.43;1749507;82;21044;-67
2021/01/18 07:04:51;;;;;;;35.53;9.83;;;;;;;-12.86;58.59;100555.61;1749575;81;21331;-67
2021/01/18 07:07:30;;;;;;;24.73;8.67;;;;;;;-12.75;58.38;100561.87;1749574;81;21314;-67
2021/01/18 07:09:59;;;;;;;30.77;8.63;;;;;;;-12.75;58.21;100555.27;1749401;81;21250;-66
2021/01/18 07:12:28;;;;;;;34.23;11.57;;;;;;;-12.81;58.24;100559.42;1749624;81;21162;-68
2021/01/18 07:15:01;;;;;;;41.33;12.70;;;;;;;-12.78;58.53;100559.33;1749673;81;21307;-67
2021/01/18 07:17:46;;;;;;;41.03;12.23;;;;;;;-12.65;58.47;100559.34;1749639;81;21250;-67
2021/01/18 07:20:26;;;;;;;32.60;10.10;;;;;;;-12.53;58.17;100562.91;1749398;81;21287;-67
2021/01/18 07:23:17;;;;;;;39.07;12.13;;;;;;;-12.53;58.01;100564.23;1748079;81;21747;-67
2021/01/18 07:25:47;;;;;;;39.87;12.23;;;;;;;-12.53;58.10;100569.52;1749711;82;21064;-67
2021/01/18 07:28:19;;;;;;;42.67;14.63;;;;;;;-12.41;58.22;100565.62;1749534;81;21261;-67
2021/01/18 07:30:52;;;;;;;50.30;15.37;;;;;;;-12.40;57.86;100562.06;1749455;81;21052;-67
2021/01/18 07:33:18;;;;;;;40.87;13.13;;;;;;;-12.33;57.89;100564.95;1748961;82;21778;-67
2021/01/18 07:35:46;;;;;;;34.60;10.47;;;;;;;-12.35;57.67;100570.73;1749563;82;21246;-67
2021/01/18 07:38:26;;;;;;;49.23;14.90;;;;;;;-12.36;57.66;100563.69;1749377;81;21246;-67
2021/01/18 07:41:11;;;;;;;51.15;14.40;;;;;;;-12.34;57.73;100564.53;1749355;81;21063;-67
2021/01/18 07:43:44;;;;;;;47.45;13.05;;;;;;;-12.31;57.41;100563.12;1749444;81;21068;-66
2021/01/18 07:46:31;;;;;;;41.75;13.15;;;;;;;-12.35;57.75;100558.85;1747110;81;21207;-67
2021/01/18 07:49:00;;;;;;;51.90;14.00;;;;;;;-12.32;57.49;100561.39;1749481;81;21052;-68
2021/01/18 07:51:33;;;;;;;40.30;12.82;;;;;;;-12.42;57.56;100566.98;1749435;82;21090;-68
2021/01/18 07:54:01;;;;;;;39.93;11.80;;;;;;;-12.41;58.01;100567.39;1749375;81;21788;-66
2021/01/18 07:56:31;;;;;;;35.37;12.20;;;;;;;-12.29;58.10;100565.25;1749068;81;21274;-66
2021/01/18 07:59:00;;;;;;;34.03;12.13;;;;;;;-12.25;57.82;100572.61;1748932;81;21072;-67
2021/01/18 08:01:30;;;;;;;34.50;11.85;;;;;;;-12.15;58.00;100579.31;1749434;82;21139;-67
2021/01/18 08:04:20;;;;;;;37.60;12.87;;;;;;;-12.17;57.49;100583.33;1748958;81;21033;-67
2021/01/18 08:07:06;;;;;;;34.50;11.65;;;;;;;-12.14;57.87;100581.04;1749170;81;21377;-69
2021/01/18 08:09:36;;;;;;;47.33;14.63;;;;;;;-11.93;57.96;100588.25;1725528;82;21064;-67
2021/01/18 08:12:34;;;;;;;29.00;9.83;;;;;;;-11.87;57.46;100597.28;1748533;80;21159;-67
2021/01/18 08:15:10;;;;;;;29.15;9.00;;;;;;;-11.86;56.91;100595.50;1748990;82;21227;-68
2021/01/18 08:17:38;;;;;;;36.68;11.05;;;;;;;-11.90;57.09;100592.56;1748877;81;21144;-67
2021/01/18 08:20:07;;;;;;;30.17;9.93;;;;;;;-11.86;56.95;100595.50;1758972;80;21305;-68
2021/01/18 08:22:35;;;;;;;34.00;10.80;;;;;;;-11.78;57.16;100588.64;1719248;81;21265;-67
2021/01/18 08:25:06;;;;;;;35.83;11.48;;;;;;;-11.66;56.94;100589.07;1739964;80;21380;-67
2021/01/18 08:27:47;;;;;;;33.78;10.55;;;;;;;-11.65;56.55;100584.19;1757445;80;21053;-67
2021/01/18 08:30:34;;;;;;;34.23;10.43;;;;;;;-11.71;56.28;100584.83;1749578;81;21082;-67
2021/01/18 08:33:07;;;;;;;32.48;11.30;;;;;;;-11.82;56.40;100590.98;1749250;82;21345;-67
2021/01/18 08:35:45;;;;;;;23.18;8.63;;;;;;;-11.72;56.81;100592.35;1748898;82;21041;-67
2021/01/18 08:38:26;;;;;;;25.77;9.48;;;;;;;-11.46;56.87;100596.30;1748762;82;21389;-67
2021/01/18 08:41:10;;;;;;;39.75;12.53;;;;;;;-11.21;56.92;100593.63;1747163;81;21394;-67
2021/01/18 08:43:49;;;;;;;32.70;9.53;;;;;;;-10.96;56.26;100598.91;1748623;82;21932;-67
2021/01/18 08:46:39;;;;;;;34.30;10.20;;;;;;;-10.94;55.90;100583.84;1748840;81;21072;-67
2021/01/18 08:49:24;;;;;;;49.70;14.95;;;;;;;-10.86;55.65;100579.11;1748326;82;21146;-67
2021/01/18 08:51:53;;;;;;;45.20;13.25;;;;;;;-10.83;55.26;100576.34;1748335;81;21210;-67
2021/01/18 08:54:38;;;;;;;45.30;15.03;;;;;;;-10.85;54.97;100580.84;1748106;81;21688;-67
2021/01/18 08:57:26;;;;;;;37.60;12.63;;;;;;;-11.02;54.89;100572.68;1733946;81;21805;-67
2021/01/18 09:00:05;;;;;;;26.65;10.32;;;;;;;-11.15;55.11;100578.86;1743463;80;21891;-68
2021/01/18 09:02:33;;;;;;;31.45;10.30;;;;;;;-11.17;55.07;100571.90;1743439;82;21727;-67
2021/01/18 09:05:19;;;;;;;20.72;7.22;;;;;;;-11.22;55.29;100574.71;1744314;81;21312;-68
2021/01/18 09:07:49;;;;;;;26.15;9.35;;;;;;;-11.14;55.50;100568.68;1738939;81;21195;-68
2021/01/18 09:10:19;;;;;;;27.67;8.23;;;;;;;-10.96;55.33;100573.77;1738550;82;21937;-68
2021/01/18 09:12:48;;;;;;;27.32;7.87;;;;;;;-10.76;55.44;100575.19;1738686;81;21185;-68
2021/01/18 09:15:20;;;;;;;20.80;7.60;;;;;;;-10.64;54.59;100568.09;1738596;82;21323;-68
2021/01/18 09:17:48;;;;;;;21.55;6.92;;;;;;;-10.66;54.36;100557.17;1725293;82;21979;-68
2021/01/18 09:20:16;;;;;;;18.62;7.00;;;;;;;-10.62;54.25;100560.95;1731691;82;21082;-68
2021/01/18 09:22:45;;;;;;;24.45;7.60;;;;;;;-10.58;54.09;100559.91;1732007;82;21096;-67
2021/01/18 09:25:15;;;;;;;21.75;8.03;;;;;;;-10.55;53.92;100556.28;1730645;82;21260;-67
2021/01/18 09:27:42;;;;;;;17.95;6.90;;;;;;;-10.50;53.58;100554.77;1730583;82;21219;-68
2021/01/18 09:30:17;;;;;;;24.65;7.58;;;;;;;-10.52;53.56;100552.19;1739010;80;21054;-68
2021/01/18 09:33:00;;;;;;;16.75;6.78;;;;;;;-10.45;53.52;100543.07;1723697;81;21457;-68
2021/01/18 09:35:33;;;;;;;21.87;7.22;;;;;;;-10.30;53.64;100537.18;1692255;83;21378;-67
2021/01/18 09:38:01;;;;;;;18.57;7.17;;;;;;;-10.10;53.73;100536.31;1699862;84;21223;-68
2021/01/18 09:40:32;;;;;;;20.88;6.45;;;;;;;-9.88;53.51;100536.27;1689433;84;21776;-68
2021/01/18 09:43:00;;;;;;;19.50;7.45;;;;;;;-9.74;52.48;100537.03;1694986;83;21083;-67
2021/01/18 09:45:28;;;;;;;27.45;7.67;;;;;;;-9.95;51.90;100526.39;1701210;83;21036;-67
2021/01/18 09:48:03;;;;;;;20.77;7.28;;;;;;;-9.94;52.68;100519.30;1702265;84;21223;-69
2021/01/18 09:50:31;;;;;;;23.38;8.05;;;;;;;-9.78;52.58;100524.34;1671740;84;21240;-66
2021/01/18 09:52:59;;;;;;;20.45;7.90;;;;;;;-9.66;52.42;100528.28;1676744;85;21313;-69
2021/01/18 09:55:29;;;;;;;25.97;8.58;;;;;;;-9.53;51.95;100525.48;1685713;85;21099;-67
2021/01/18 09:58:18;;;;;;;23.52;7.83;;;;;;;-9.61;51.70;100527.61;1679103;85;21405;-66
2021/01/18 10:00:49;;;;;;;22.10;8.23;;;;;;;-9.64;51.38;100530.40;1669635;84;21089;-71
2021/01/18 10:03:30;;;;;;;24.12;7.65;;;;;;;-9.74;51.87;100525.10;1676756;85;21062;-67
2021/01/18 10:06:15;;;;;;;23.25;8.03;;;;;;;-9.68;51.43;100530.14;1668959;85;21075;-68
2021/01/18 10:08:44;;;;;;;24.55;8.53;;;;;;;-9.86;51.08;100526.92;1686688;84;21228;-68
2021/01/18 10:11:14;;;;;;;23.10;8.85;;;;;;;-10.08;51.02;100527.84;1686744;84;21179;-69
2021/01/18 10:13:41;;;;;;;26.10;9.18;;;;;;;-10.16;51.26;100524.66;1678260;84;21320;-69
2021/01/18 10:16:14;;;;;;;22.20;8.18;;;;;;;-10.17;51.66;100530.02;1667413;84;21781;-71
2021/01/18 10:18:49;;;;;;;23.83;7.75;;;;;;;-10.21;51.32;100527.99;1687668;84;21158;-73
2021/01/18 10:21:13;;;;;;;26.57;7.67;;;;;;;-10.17;51.91;100526.05;1685249;84;21075;-69
2021/01/18 10:23:49;;;;;;;22.02;7.45;;;;;;;-9.91;52.28;100521.83;1680607;85;21314;-69
2021/01/18 10:26:22;;;;;;;22.37;7.78;;;;;;;-9.66;52.23;100521.19;1681510;83;21720;-75
2021/01/18 10:29:05;;;;;;;28.47;8.23;;;;;;;-9.45;51.82;100523.35;1678315;84;21171;-80
2021/01/18 10:31:33;;;;;;;21.93;8.78;;;;;;;-9.36;51.07;100517.63;1690154;84;21060;-75
2021/01/18 10:34:12;;;;;;;30.30;9.68;;;;;;;-9.36;51.07;100518.09;1684043;84;21769;-75
2021/01/18 10:36:47;;;;;;;34.25;9.73;;;;;;;-9.40;50.94;100516.05;1684204;84;21096;-75
2021/01/18 10:39:33;;;;;;;32.58;10.85;;;;;;;-9.42;51.03;100521.02;1670975;84;21230;-70
2021/01/18 10:42:24;;;;;;;27.10;9.40;;;;;;;-9.35;51.15;100519.81;1690712;84;21119;-69
2021/01/18 10:44:55;;;;;;;23.57;8.40;;;;;;;-9.15;51.11;100504.31;1694934;83;21090;-77
2021/01/18 10:47:26;;;;;;;24.23;8.63;;;;;;;-9.11;50.62;100501.45;1694848;84;21895;-71
2021/01/18 10:49:58;;;;;;;22.10;7.47;;;;;;;-9.30;50.73;100505.41;1675964;84;21091;-68
2021/01/18 10:52:41;;;;;;;27.25;8.88;;;;;;;-9.31;50.74;100512.98;1673075;84;21898;-67
2021/01/18 10:55:13;;;;;;;45.98;14.93;;;;;;;-9.29;50.60;100510.25;1687177;84;21781;-66
2021/01/18 10:57:45;;;;;;;28.10;9.70;;;;;;;-9.40;51.16;100518.70;1673050;84;21120;-75
2021/01/18 11:00:19;;;;;;;29.10;11.10;;;;;;;-9.21;51.42;100511.23;1678381;85;21733;-68
2021/01/18 11:03:02;;;;;;;26.90;10.00;;;;;;;-9.04;51.29;100511.34;1679025;84;21120;-69
2021/01/18 11:05:39;;;;;;;28.12;9.33;;;;;;;-9.02;51.20;100508.16;1682058;84;21040;-74
2021/01/18 11:08:10;;;;;;;27.95;10.10;;;;;;;-8.94;50.98;100501.16;1687477;84;21095;-72
2021/01/18 11:10:42;;;;;;;29.10;10.60;;;;;;;-8.96;51.24;100503.88;1676215;84;21123;-69
2021/01/18 11:13:16;;;;;;;27.67;9.63;;;;;;;-8.96;51.34;100505.21;1680139;84;21057;-70
2021/01/18 11:15:44;;;;;;;23.52;8.20;;;;;;;-8.77;51.24;100515.35;1674921;85;21251;-73
2021/01/18 11:18:12;;;;;;;27.70;10.23;;;;;;;-8.70;51.05;100518.58;1682322;84;21089;-68
2021/01/18 11:20:44;;;;;;;34.40;12.05;;;;;;;-8.81;51.15;100503.62;1690113;84;20977;-70
2021/01/18 11:23:11;;;;;;;32.75;11.05;;;;;;;-8.83;51.07;100501.51;1685876;84;20979;-69
2021/01/18 11:25:39;;;;;;;28.02;10.38;;;;;;;-8.96;51.03;100500.77;1680211;84;21005;-76
2021/01/18 11:28:11;;;;;;;24.60;9.13;;;;;;;-9.09;51.32;100497.43;1679461;84;21136;-67
2021/01/18 11:30:40;;;;;;;28.17;9.98;;;;;;;-9.12;51.37;100502.84;1685475;84;20998;-67
2021/01/18 11:33:12;;;;;;;29.57;9.43;;;;;;;-9.08;51.59;100500.48;1683586;84;21035;-69
2021/01/18 11:35:39;;;;;;;25.30;9.05;;;;;;;-8.93;51.90;100506.86;1681107;84;21069;-69